AirNav   Pilot Hours Calculator
 
 1054 users online  

7MN3 Caldbeck Field Airport
Spring Valley, Minnesota, USA

GOING TO SPRING VALLEY?


FAA INFORMATION EFFECTIVE 01 DECEMBER 2022

Location

FAA Identifier: 7MN3
Lat/Long: 43-42-18.8670N 092-27-38.6190W
43-42.314450N 092-27.643650W
43.7052408,-92.4607275
(estimated)
Elevation: 1340 ft. / 408 m (estimated)
Variation: 03E (1985)
From city: 3 miles NW of SPRING VALLEY, MN
Time zone: UTC -6 (UTC -5 during Daylight Saving Time)
Zip code: 55975

Airport Operations

Airport use: Private use. Permission required prior to landing
Activation date: 02/1978
Control tower: no
ARTCC: MINNEAPOLIS CENTER
FSS: PRINCETON FLIGHT SERVICE STATION
Attendance: UNATNDD
Wind indicator: yes
Segmented circle: no

Airport Communications

WX ASOS at RST (12 nm N): PHONE 507-424-8146
WX AWOS-3 at FKA (12 nm E): 118.550 (507-765-2182)

Nearby radio navigation aids

VOR radial/distance  VOR name  Freq  Var
RSTr123/7.5ROCHESTER VOR/DME112.0005E
JAYr069/21.3AUSTIN VOR/DME108.2000E
AELr087/39.5ALBERT LEA VOR/DME109.8001E

Airport Services

Runway Information

Runway 18/36

Dimensions: 3000 x 100 ft. / 914 x 30 m
Surface: turf
RUNWAY 18  RUNWAY 36
Traffic pattern: leftleft
Obstructions: nonepline, marked, 500 ft. from runway

Airport Ownership and Management from official FAA records

Ownership: Privately-owned
Owner: PATRICK & SHAWN SWEEN
23827 795TH AVE
SPRING VALLEY, MN 55975
Phone (507) 923-5128
Manager: PATRICK AND SHAWN SWEEN
23827 795TH AVE
SPRING VALLEY, MN 55975
Phone (507) 923-5128
EMAIL ADDRESS: PATRICKJSWEEN@GMAIL.COM

Airport Operational Statistics

Aircraft based on the field: 3
Single engine airplanes: 3
    
Aircraft operations: 100/year
100% local general aviation

Additional Remarks

FOR CD CTC MINNEAPOLIS ARTCC AT 651-463-5588.

Instrument Procedures

There are no published instrument procedures at 7MN3.

Some nearby airports with instrument procedures:

KRST - Rochester International Airport (12 nm N)
KFKA - Fillmore County Airport (12 nm E)
KAUM - Austin Municipal Airport (21 nm W)
KTOB - Dodge Center Airport (25 nm NW)
KCJJ - Ellen Church Field Airport (25 nm SE)
 
Loc | Ops | Rwys | IFR | FBO | Links
Com | Nav | Svcs | Stats | Notes
Area around 7MN3 (Caldbeck Field Airport)
 
Road maps at: MapQuest Bing Google
 
Aerial photo
WARNING: Photo may not be current or correct
Aerial photo of 7MN3 (Caldbeck Field Airport)
Photo taken 14-Oct-2011
looking northeast.

Do you have a better or more recent aerial photo of Caldbeck Field Airport that you would like to share? If so, please send us your photo.

 
Sectional chart

 
Airport distance calculator
Flying to Caldbeck Field Airport? Find the distance to fly.

From to 7MN3

Sunrise and sunset
Times for 03-Dec-2022
 Local
(UTC-6)
 Zulu
(UTC)
Morning civil twilight06:5412:54
Sunrise07:2713:27
Sunset16:3322:33
Evening civil twilight17:0523:05

Current date and time
Zulu (UTC)  04-Dec-2022 00:55:15
Local (UTC-6)  03-Dec-2022 18:55:15
 
METAR
KRST 
12nm N 
032354Z 18006KT 10SM CLR M11/M15 A3030 RMK AO2 SLP293 T11111150 11100 21128 58018 $
KFKA 
12nm E 
040035Z AUTO 18007KT 10SM CLR M11/M14 A3031 RMK AO2 T11071139
K9MN 
19nm N 
040035Z AUTO 14007KT 10SM CLR M10/M15 A3029 RMK AO1 T11031150
KAUM 
20nm W 
040037Z AUTO 19008KT 10SM CLR M09/M13 A3030 RMK AO2
TAF
KRST 
12nm N 
031720Z 0318/0418 28014KT P6SM FEW200 FM032300 23006KT P6SM SKC
NOTAMs
Click for the latest NOTAMs
NOTAMs are issued by the DoD/FAA and will open in a separate window not controlled by AirNav.

 

 
 

Would you like to see your business listed on this page?

 If your business provides an interesting product or service to pilots, flight crews, aircraft, or users of the Caldbeck Field Airport, you should consider listing it here.  To start the listing process, click on the button below
 
Add a business
 

Other Pages about Caldbeck Field Airport

Update a link
 
Copyright © AirNav, LLC. All rights reserved. Privacy Policy  Contact